Centralia, Canada
Current Conditions -  °F | °C
As of 4:00 AM on Friday 19 Dec 2014 (Local Time) from CYXU Reporting Station
Light Snow Light Snow  
Wind Chill: 11°   Ceiling: 1300
Heat Index: 23°   Visibility: 15mi
Dew Point: 19°   Wind: 13mph
Humidity: 86%   Direction: 350°N
Pressure: 30.15"   Gusts: 20mph
Location:  43.28°N, 81.47°W
Report Text: CYXU 190900Z 35011G17KT 15SM -SN OVC013 M05/M07 A3015 RMK SF8 PCPN VRY LGT SLP222
Loading
Personal Weather Stations






























Interactive Weather Map New forecast layout! Learn more

10-Day Weather Forecast

Advertisements
Track Severe Weather on mobile